Time;durP1;ratioP1;P1;durP2;ratioP2;P2;SDS_P1;SDS_P2;PMS_P1;PMS_P2;Temp;Humidity;BMP_temperature;BMP_pressure;BME280_temperature;BME280_humidity;BME280_pressure;Samples;Min_cycle;Max_cycle;Signal;HPM_P1;HPM_P2
2022/04/30 00:00:37;;;;;;;9.33;4.58;;;;;;;12.22;54.54;101296.16;1747147;80;21059;-54
2022/04/30 00:03:05;;;;;;;8.10;4.50;;;;;;;12.23;54.54;101298.31;1751403;80;21150;-54
2022/04/30 00:05:33;;;;;;;9.68;4.65;;;;;;;12.23;55.05;101297.83;1752063;80;21946;-54
2022/04/30 00:08:00;;;;;;;8.38;5.03;;;;;;;12.25;55.10;101300.36;1759169;80;21086;-54
2022/04/30 00:10:27;;;;;;;9.23;4.67;;;;;;;12.25;55.41;101307.82;1747685;80;21429;-53
2022/04/30 00:12:55;;;;;;;8.38;4.78;;;;;;;12.24;55.26;101302.66;1756576;80;21011;-54
2022/04/30 00:15:22;;;;;;;8.40;4.75;;;;;;;12.21;54.92;101306.83;1750997;80;21477;-54
2022/04/30 00:17:51;;;;;;;10.08;4.97;;;;;;;12.16;54.81;101299.23;1761175;80;21477;-54
2022/04/30 00:20:18;;;;;;;8.73;4.92;;;;;;;12.14;54.83;101305.56;1752741;80;21745;-54
2022/04/30 00:22:46;;;;;;;9.45;5.03;;;;;;;12.11;54.83;101308.45;1756437;80;21051;-54
2022/04/30 00:25:14;;;;;;;9.38;5.17;;;;;;;12.08;54.89;101298.45;1747108;80;21540;-54
2022/04/30 00:27:40;;;;;;;8.05;4.50;;;;;;;12.08;55.01;101303.73;1754655;80;21124;-54
2022/04/30 00:30:09;;;;;;;7.97;4.45;;;;;;;12.06;54.77;101304.81;1745793;80;21040;-54
2022/04/30 00:32:36;;;;;;;7.92;4.53;;;;;;;12.03;54.61;101305.02;1759877;80;21072;-54
2022/04/30 00:35:04;;;;;;;8.65;4.58;;;;;;;12.01;54.28;101305.13;1748027;79;21019;-54
2022/04/30 00:37:33;;;;;;;7.75;4.42;;;;;;;11.94;54.17;101297.78;1736305;80;21027;-54
2022/04/30 00:39:59;;;;;;;9.25;4.87;;;;;;;11.87;53.90;101302.63;1751082;80;21142;-54
2022/04/30 00:42:26;;;;;;;8.25;4.37;;;;;;;11.80;53.78;101307.48;1750397;80;20998;-54
2022/04/30 00:44:53;;;;;;;7.62;4.53;;;;;;;11.71;53.60;101298.40;1753171;80;21110;-54
2022/04/30 00:47:21;;;;;;;8.63;4.78;;;;;;;11.67;53.66;101300.90;1754383;79;21059;-54
2022/04/30 00:49:48;;;;;;;9.83;4.67;;;;;;;11.62;53.56;101300.38;1752747;80;20993;-54
2022/04/30 00:52:16;;;;;;;8.58;4.92;;;;;;;11.58;53.36;101301.52;1747120;80;21138;-53
2022/04/30 00:54:49;;;;;;;8.90;5.03;;;;;;;11.55;53.33;101300.90;1753994;80;21078;-54
2022/04/30 00:57:24;;;;;;;9.03;4.67;;;;;;;11.53;53.32;101301.00;1752735;80;21078;-54
2022/04/30 00:59:59;;;;;;;8.35;4.67;;;;;;;11.52;53.49;101295.38;1744163;80;21083;-54
2022/04/30 01:02:30;;;;;;;10.45;5.28;;;;;;;11.54;53.52;101286.89;1755572;80;21069;-55
2022/04/30 01:05:14;;;;;;;11.70;5.22;;;;;;;11.59;53.58;101286.09;1743679;80;21167;-53
2022/04/30 01:07:41;;;;;;;8.13;4.67;;;;;;;11.62;53.66;101285.88;1749791;80;21544;-53
2022/04/30 01:10:09;;;;;;;10.23;5.25;;;;;;;11.66;53.80;101286.02;1754193;79;21497;-54
2022/04/30 01:12:36;;;;;;;8.33;4.53;;;;;;;11.68;53.70;101276.69;1752884;80;21524;-53
2022/04/30 01:15:06;;;;;;;7.50;4.20;;;;;;;11.70;53.75;101278.28;1754021;80;21469;-53
2022/04/30 01:17:35;;;;;;;7.33;4.17;;;;;;;11.74;54.35;101271.48;1761670;79;21740;-54
2022/04/30 01:20:04;;;;;;;7.15;4.50;;;;;;;11.77;54.99;101276.50;1764345;79;21043;-54
2022/04/30 01:22:38;;;;;;;7.37;4.08;;;;;;;11.78;55.13;101270.30;1770014;80;21059;-54
2022/04/30 01:25:07;;;;;;;6.92;3.90;;;;;;;11.79;55.31;101271.99;1710408;83;21076;-54
2022/04/30 01:27:33;;;;;;;9.63;4.92;;;;;;;11.80;55.22;101272.34;1687839;83;21083;-54
2022/04/30 01:30:04;;;;;;;9.68;4.55;;;;;;;11.80;55.28;101275.84;1640447;83;21183;-55
2022/04/30 01:38:11;;;;;;;7.58;3.80;;;;;;;11.92;56.01;101270.20;1755610;80;21051;-54
2022/04/30 01:40:38;;;;;;;9.08;4.12;;;;;;;11.99;56.47;101273.23;1753015;80;21587;-54
2022/04/30 01:43:05;;;;;;;9.90;5.28;;;;;;;12.03;56.51;101270.25;1757604;79;21172;-54
2022/04/30 01:45:33;;;;;;;8.98;4.90;;;;;;;12.07;56.58;101269.58;1752368;80;21129;-54
2022/04/30 01:48:00;;;;;;;7.95;3.95;;;;;;;12.14;56.61;101266.85;1757363;80;21086;-54
2022/04/30 01:50:27;;;;;;;8.15;4.60;;;;;;;12.16;56.56;101268.89;1752513;80;21093;-54
2022/04/30 01:52:54;;;;;;;7.65;4.28;;;;;;;12.19;56.68;101254.66;1757312;80;21994;-54
2022/04/30 01:55:20;;;;;;;7.92;4.70;;;;;;;12.20;57.67;101245.77;1767701;80;22110;-54
2022/04/30 01:57:50;;;;;;;7.47;3.90;;;;;;;12.19;58.37;101244.09;1760117;80;21015;-53
2022/04/30 02:00:20;;;;;;;7.65;4.78;;;;;;;12.14;58.79;101240.47;1752812;80;21106;-53
2022/04/30 02:02:49;;;;;;;8.93;4.87;;;;;;;12.06;59.24;101241.02;1756694;79;21101;-53
2022/04/30 02:05:16;;;;;;;7.62;4.00;;;;;;;12.02;59.84;101247.48;1761423;80;21094;-53
2022/04/30 02:08:00;;;;;;;7.35;3.77;;;;;;;11.96;59.43;101243.13;1767519;80;22058;-53
2022/04/30 02:10:27;;;;;;;7.80;3.90;;;;;;;11.92;59.76;101245.14;1758598;80;21050;-53
2022/04/30 02:12:54;;;;;;;7.87;3.65;;;;;;;11.91;59.78;101250.04;1755876;79;21098;-53
2022/04/30 02:15:22;;;;;;;7.40;3.95;;;;;;;11.93;59.36;101245.48;1754478;80;21070;-54
2022/04/30 02:17:49;;;;;;;7.47;3.60;;;;;;;11.99;59.50;101248.19;1764907;80;21125;-53
2022/04/30 02:20:24;;;;;;;8.08;4.25;;;;;;;12.00;59.73;101246.75;1755101;79;21352;-54
2022/04/30 02:22:54;;;;;;;8.00;3.90;;;;;;;12.01;59.89;101248.91;1759750;79;21055;-54
2022/04/30 02:25:21;;;;;;;7.42;4.30;;;;;;;12.04;60.19;101244.25;1704088;82;21068;-54
2022/04/30 02:27:51;;;;;;;8.85;5.17;;;;;;;12.04;60.48;101238.14;1752622;80;21047;-54
2022/04/30 02:30:20;;;;;;;10.15;5.35;;;;;;;12.03;60.78;101235.95;1749759;79;21141;-54
2022/04/30 02:34:55;;;;;;;8.90;4.78;;;;;;;11.96;61.03;101229.45;1789519;79;22658;-54
2022/04/30 02:37:21;;;;;;;10.03;4.80;;;;;;;11.88;60.84;101235.72;1768186;80;21011;-55
2022/04/30 02:39:48;;;;;;;9.50;5.10;;;;;;;11.83;60.46;101245.27;1762472;80;21149;-54
2022/04/30 02:42:14;;;;;;;7.53;4.30;;;;;;;11.74;60.77;101236.72;1761979;80;21067;-54
2022/04/30 02:44:41;;;;;;;8.33;5.00;;;;;;;11.67;61.48;101227.56;1762410;80;21029;-54
2022/04/30 02:47:08;;;;;;;7.72;3.95;;;;;;;11.65;62.15;101232.95;1768129;80;21084;-54
2022/04/30 02:49:38;;;;;;;9.10;3.90;;;;;;;11.70;62.65;101246.64;1765947;80;21037;-54
2022/04/30 02:52:05;;;;;;;7.55;3.67;;;;;;;11.66;62.65;101250.91;1765466;80;21720;-54
2022/04/30 02:54:34;;;;;;;7.55;3.87;;;;;;;11.58;62.46;101238.75;1758529;80;21043;-54
2022/04/30 02:57:02;;;;;;;8.30;4.22;;;;;;;11.51;62.71;101253.66;1767106;80;21051;-54
2022/04/30 03:02:16;;;;;;;9.60;3.60;;;;;;;11.39;63.26;101239.20;1718366;83;21114;-53
2022/04/30 03:04:46;;;;;;;9.18;4.33;;;;;;;11.33;63.36;101266.35;1716114;83;21178;-53
2022/04/30 03:07:12;;;;;;;8.40;4.75;;;;;;;11.26;63.33;101258.52;1714213;83;21053;-52
2022/04/30 03:09:40;;;;;;;9.38;4.70;;;;;;;11.22;63.57;101260.14;1705912;83;21066;-53
2022/04/30 03:12:09;;;;;;;7.92;4.20;;;;;;;11.21;63.18;101256.64;1712912;83;21099;-53
2022/04/30 03:14:35;;;;;;;10.38;4.83;;;;;;;11.24;62.62;101264.34;1712501;81;21125;-53
2022/04/30 03:22:33;;;;;;;8.65;5.10;;;;;;;11.27;61.01;101257.55;1712765;81;21042;-53
2022/04/30 03:24:59;;;;;;;9.30;4.95;;;;;;;11.27;61.07;101260.66;1714791;82;21073;-53
2022/04/30 03:27:26;;;;;;;9.25;4.72;;;;;;;11.28;61.02;101267.14;1718771;82;21074;-53
2022/04/30 03:29:55;;;;;;;7.25;4.35;;;;;;;11.29;61.11;101271.45;1715053;82;21162;-53
2022/04/30 03:32:24;;;;;;;8.90;4.83;;;;;;;11.26;61.42;101261.15;1717716;82;21461;-53
2022/04/30 03:34:52;;;;;;;8.90;5.00;;;;;;;11.27;61.75;101254.08;1702630;82;21028;-54
2022/04/30 03:37:19;;;;;;;7.70;4.47;;;;;;;11.31;62.51;101260.35;1696130;83;21126;-53
2022/04/30 03:39:45;;;;;;;7.65;4.05;;;;;;;11.38;63.02;101260.77;1710135;82;21043;-53
2022/04/30 03:42:12;;;;;;;7.35;4.45;;;;;;;11.45;63.32;101263.34;1753681;80;21108;-53
2022/04/30 03:44:39;;;;;;;10.03;5.50;;;;;;;11.50;63.79;101284.95;1754717;80;21012;-54
2022/04/30 03:47:06;;;;;;;9.03;5.00;;;;;;;11.47;64.23;101289.59;1753321;80;21038;-53
2022/04/30 03:49:34;;;;;;;8.95;4.42;;;;;;;11.32;63.96;101283.09;1749595;80;21062;-54
2022/04/30 03:52:00;;;;;;;8.53;4.40;;;;;;;11.30;63.03;101281.05;1751985;80;21583;-53
2022/04/30 03:54:27;;;;;;;8.43;4.40;;;;;;;11.34;62.33;101275.09;1753020;80;21263;-53
2022/04/30 03:56:53;;;;;;;7.25;4.20;;;;;;;11.39;61.75;101277.41;1750758;80;21079;-53
2022/04/30 03:59:20;;;;;;;8.10;3.80;;;;;;;11.41;61.28;101272.88;1747579;80;21046;-53
2022/04/30 04:01:48;;;;;;;6.40;3.50;;;;;;;11.42;60.67;101277.20;1706136;82;21103;-53
2022/04/30 04:04:14;;;;;;;9.25;3.72;;;;;;;11.40;60.86;101272.50;1747443;80;21102;-53
2022/04/30 04:06:42;;;;;;;7.75;4.33;;;;;;;11.38;60.76;101270.45;1751136;80;21140;-54
2022/04/30 04:09:10;;;;;;;7.62;4.35;;;;;;;11.41;61.34;101270.23;1750214;80;21090;-53
2022/04/30 04:11:36;;;;;;;7.83;3.72;;;;;;;11.43;62.21;101262.61;1747454;80;21032;-53
2022/04/30 04:19:34;;;;;;;9.05;4.03;;;;;;;11.68;62.38;101266.14;1759102;80;21078;-54
2022/04/30 04:22:00;;;;;;;7.62;3.98;;;;;;;11.76;62.51;101265.61;1759548;80;21114;-55
2022/04/30 04:27:12;;;;;;;7.62;3.25;;;;;;;11.86;60.54;101260.87;1699153;84;21021;-53
2022/04/30 04:29:39;;;;;;;6.78;3.35;;;;;;;11.92;61.20;101262.28;1699655;83;21107;-54
2022/04/30 04:32:06;;;;;;;7.42;4.03;;;;;;;11.96;61.96;101262.42;1748618;80;21156;-54
2022/04/30 04:34:33;;;;;;;6.75;3.70;;;;;;;11.93;61.80;101261.80;1749413;80;21052;-53
2022/04/30 04:36:59;;;;;;;6.80;3.98;;;;;;;11.92;61.89;101268.02;1755467;80;21031;-54
2022/04/30 04:39:26;;;;;;;7.15;4.05;;;;;;;11.84;61.87;101271.19;1753756;80;21114;-54
2022/04/30 04:41:52;;;;;;;6.15;3.20;;;;;;;11.73;62.09;101275.05;1753993;80;20999;-54
2022/04/30 04:44:21;;;;;;;6.20;3.40;;;;;;;11.68;62.18;101280.64;1759172;80;21143;-54
2022/04/30 04:46:48;;;;;;;8.23;3.40;;;;;;;11.67;62.36;101276.34;1722309;81;21071;-54
2022/04/30 04:49:14;;;;;;;8.20;3.77;;;;;;;11.68;62.38;101280.64;1757377;80;21058;-54
2022/04/30 04:51:41;;;;;;;7.20;3.75;;;;;;;11.71;62.64;101289.66;1759853;79;21043;-54
2022/04/30 04:54:07;;;;;;;7.58;3.15;;;;;;;11.71;63.16;101294.93;1752652;80;21146;-54
2022/04/30 04:56:35;;;;;;;7.12;3.25;;;;;;;11.65;63.52;101293.58;1744410;80;21068;-54
2022/04/30 04:59:01;;;;;;;6.40;2.87;;;;;;;11.56;63.21;101290.25;1748659;80;21042;-54
2022/04/30 05:01:28;;;;;;;8.08;3.92;;;;;;;11.54;63.06;101285.57;1744086;80;21055;-54
2022/04/30 05:03:55;;;;;;;6.92;3.45;;;;;;;11.57;63.27;101280.09;1756378;80;21047;-54
2022/04/30 05:06:22;;;;;;;6.95;3.60;;;;;;;11.62;63.27;101289.00;1756078;80;21085;-54
2022/04/30 05:08:50;;;;;;;6.25;3.40;;;;;;;11.66;63.39;101285.19;1752856;80;22319;-54
2022/04/30 05:11:18;;;;;;;6.47;2.60;;;;;;;11.75;63.89;101283.69;1748754;80;20992;-54
2022/04/30 05:13:44;;;;;;;5.42;2.50;;;;;;;11.89;63.46;101283.08;1747377;80;21110;-54
2022/04/30 05:16:13;;;;;;;7.47;2.25;;;;;;;12.04;62.96;101279.86;1757115;80;21067;-54
2022/04/30 05:18:39;;;;;;;6.20;2.37;;;;;;;12.18;62.41;101287.25;1753923;80;21098;-54
2022/04/30 05:21:06;;;;;;;5.00;2.42;;;;;;;12.26;62.27;101287.55;1750767;80;21143;-54
2022/04/30 05:23:34;;;;;;;6.78;2.60;;;;;;;12.36;61.79;101299.11;1758059;80;21008;-54
2022/04/30 05:26:00;;;;;;;5.30;2.62;;;;;;;12.43;61.03;101285.82;1720754;80;21106;-54
2022/04/30 05:28:27;;;;;;;5.33;2.05;;;;;;;12.53;60.05;101290.44;1759355;80;21091;-54
2022/04/30 05:30:53;;;;;;;5.67;2.60;;;;;;;12.56;59.40;101287.09;1763811;80;21102;-54
2022/04/30 05:33:20;;;;;;;5.62;2.62;;;;;;;12.60;59.29;101288.53;1754418;80;21386;-55
2022/04/30 05:35:47;;;;;;;5.28;2.47;;;;;;;12.65;59.24;101290.84;1756223;80;21078;-54
2022/04/30 05:38:13;;;;;;;5.47;2.67;;;;;;;12.69;59.14;101289.64;1700222;83;21085;-54
2022/04/30 05:40:40;;;;;;;5.72;2.70;;;;;;;12.73;59.05;101292.92;1760074;80;21106;-54
2022/04/30 05:43:07;;;;;;;5.40;2.47;;;;;;;12.78;58.78;101298.70;1756267;80;21623;-54
2022/04/30 05:45:34;;;;;;;10.13;2.72;;;;;;;12.82;58.25;101290.41;1711191;82;21111;-54
2022/04/30 05:48:01;;;;;;;5.10;2.52;;;;;;;12.88;57.72;101299.69;1705070;82;21516;-54
2022/04/30 05:50:27;;;;;;;5.50;2.77;;;;;;;12.92;57.35;101306.41;1757451;80;21041;-54
2022/04/30 05:52:54;;;;;;;5.97;2.87;;;;;;;12.94;57.75;101307.13;1759489;80;21090;-54
2022/04/30 05:55:20;;;;;;;4.95;2.70;;;;;;;12.99;57.71;101311.62;1709777;82;21060;-54
2022/04/30 05:57:47;;;;;;;6.47;3.00;;;;;;;13.07;57.86;101312.83;1760835;80;21108;-54
2022/04/30 06:00:15;;;;;;;5.28;2.67;;;;;;;13.14;58.10;101315.36;1757909;80;21015;-54
2022/04/30 06:02:43;;;;;;;7.17;3.02;;;;;;;13.19;58.05;101311.39;1770841;80;21075;-55
2022/04/30 06:05:10;;;;;;;7.72;2.50;;;;;;;13.19;57.93;101307.44;1779180;80;21007;-54
2022/04/30 06:07:36;;;;;;;6.85;3.17;;;;;;;13.26;58.33;101309.62;1765976;80;21114;-54
2022/04/30 06:10:05;;;;;;;8.35;3.62;;;;;;;13.34;57.96;101302.81;1753820;80;21143;-54
2022/04/30 06:12:34;;;;;;;7.45;3.58;;;;;;;13.43;56.23;101313.18;1758395;79;21573;-54
2022/04/30 06:15:01;;;;;;;8.70;3.92;;;;;;;13.47;55.37;101313.28;1762207;80;21019;-54
2022/04/30 06:17:28;;;;;;;6.35;3.60;;;;;;;13.47;54.37;101318.58;1762900;80;21005;-54
2022/04/30 06:19:54;;;;;;;10.15;3.47;;;;;;;13.46;54.93;101317.37;1758818;80;21114;-54
2022/04/30 06:22:21;;;;;;;10.03;5.28;;;;;;;13.44;54.40;101314.01;1763148;80;21140;-53
2022/04/30 06:24:47;;;;;;;9.53;4.80;;;;;;;13.38;53.35;101320.13;1760499;80;21094;-54
2022/04/30 06:27:14;;;;;;;9.58;5.87;;;;;;;13.32;53.17;101319.77;1762288;80;21051;-54
2022/04/30 06:29:40;;;;;;;8.68;4.83;;;;;;;13.31;52.91;101325.47;1763866;80;21493;-54
2022/04/30 06:32:09;;;;;;;10.70;5.55;;;;;;;13.30;53.13;101323.81;1755643;80;21650;-53
2022/04/30 06:34:35;;;;;;;9.38;4.92;;;;;;;13.32;53.22;101323.73;1758205;80;21125;-54
2022/04/30 06:37:03;;;;;;;10.32;6.08;;;;;;;13.35;53.27;101321.69;1755157;80;21121;-54
2022/04/30 06:39:30;;;;;;;11.73;7.10;;;;;;;13.41;53.99;101322.17;1750739;80;21540;-53
2022/04/30 06:41:57;;;;;;;12.80;6.53;;;;;;;13.48;53.06;101324.69;1754229;80;21122;-53
2022/04/30 06:44:25;;;;;;;12.35;6.83;;;;;;;13.53;52.88;101320.75;1755145;80;21058;-54
2022/04/30 06:46:53;;;;;;;11.35;7.15;;;;;;;13.61;52.76;101325.42;1756264;80;21126;-53
2022/04/30 06:49:23;;;;;;;12.70;7.47;;;;;;;13.70;51.76;101325.19;1752719;80;21493;-53
2022/04/30 06:51:49;;;;;;;12.98;6.97;;;;;;;13.78;51.39;101327.23;1753307;80;21063;-53
2022/04/30 06:57:08;;;;;;;11.70;6.95;;;;;;;13.84;50.64;101327.59;1749142;80;21439;-52
2022/04/30 06:59:40;;;;;;;12.05;6.87;;;;;;;13.82;50.14;101326.89;1757682;80;21825;-53
2022/04/30 07:02:12;;;;;;;11.33;6.50;;;;;;;13.82;50.15;101324.70;1754153;80;21066;-52
2022/04/30 07:04:41;;;;;;;13.38;5.92;;;;;;;13.84;49.70;101320.98;1753322;80;21103;-52
2022/04/30 07:07:08;;;;;;;10.40;5.53;;;;;;;13.88;49.24;101325.55;1752954;80;21770;-53
2022/04/30 07:09:37;;;;;;;12.10;5.70;;;;;;;13.92;49.74;101321.23;1750612;80;21067;-52
2022/04/30 07:12:06;;;;;;;12.20;6.25;;;;;;;14.03;49.60;101318.20;1753195;80;21150;-52
2022/04/30 07:14:36;;;;;;;14.00;6.60;;;;;;;14.16;49.29;101316.26;1753572;80;21046;-52
2022/04/30 07:17:14;;;;;;;11.38;7.65;;;;;;;14.29;49.60;101318.27;1765779;80;21034;-52
2022/04/30 07:19:42;;;;;;;11.73;6.55;;;;;;;14.40;49.55;101315.23;1765530;79;21047;-52
2022/04/30 07:22:08;;;;;;;7.65;4.30;;;;;;;14.44;48.67;101316.66;1758666;80;21105;-69
2022/04/30 07:24:35;;;;;;;16.82;5.70;;;;;;;14.38;47.55;101315.85;1753100;80;21088;-68
2022/04/30 07:27:04;;;;;;;11.15;5.30;;;;;;;14.36;48.25;101311.17;1751714;80;20992;-52
2022/04/30 07:29:32;;;;;;;13.60;4.55;;;;;;;14.35;48.16;101311.63;1755564;80;21071;-53
2022/04/30 07:31:59;;;;;;;10.53;4.92;;;;;;;14.35;48.25;101312.13;1752196;80;21011;-52
2022/04/30 07:34:27;;;;;;;11.20;5.70;;;;;;;14.35;48.17;101310.80;1750752;80;21030;-51
2022/04/30 07:36:54;;;;;;;10.18;5.65;;;;;;;14.40;48.42;101308.61;1754600;80;21155;-53
2022/04/30 07:39:21;;;;;;;10.32;5.87;;;;;;;14.46;47.55;101310.77;1764173;80;21055;-54
2022/04/30 07:41:49;;;;;;;12.00;5.50;;;;;;;14.49;47.73;101310.03;1755169;80;21090;-53
2022/04/30 07:44:17;;;;;;;9.15;5.28;;;;;;;14.54;47.68;101310.98;1762263;80;21014;-53
2022/04/30 07:46:43;;;;;;;10.20;5.22;;;;;;;14.56;47.10;101311.70;1779577;80;21081;-53
2022/04/30 07:49:10;;;;;;;10.05;4.25;;;;;;;14.58;47.20;101311.08;1766855;80;21142;-53
2022/04/30 07:51:42;;;;;;;8.40;4.33;;;;;;;14.60;46.67;101308.34;1761681;80;21027;-53
2022/04/30 07:54:09;;;;;;;11.38;4.83;;;;;;;14.64;46.74;101298.70;1757708;80;21117;-54
2022/04/30 07:56:36;;;;;;;10.05;4.75;;;;;;;14.72;46.55;101295.89;1765231;80;21082;-53
2022/04/30 07:59:02;;;;;;;8.23;4.20;;;;;;;14.83;46.66;101301.14;1757842;80;21157;-54
2022/04/30 08:01:29;;;;;;;8.40;3.87;;;;;;;14.96;45.80;101297.82;1753844;80;21205;-53
2022/04/30 08:03:56;;;;;;;9.83;3.12;;;;;;;15.09;44.95;101301.58;1755092;80;21025;-53
2022/04/30 08:06:23;;;;;;;9.15;3.33;;;;;;;15.20;44.43;101287.44;1762484;80;21015;-53
2022/04/30 08:08:49;;;;;;;8.60;3.70;;;;;;;15.30;44.17;101281.70;1758289;80;21078;-53
2022/04/30 08:11:16;;;;;;;6.97;2.87;;;;;;;15.38;44.14;101287.64;1759445;79;21011;-53
2022/04/30 08:13:43;;;;;;;6.20;2.45;;;;;;;15.45;43.95;101282.19;1767403;80;21153;-53
2022/04/30 08:16:10;;;;;;;5.50;2.08;;;;;;;15.53;41.90;101269.57;1757636;80;21024;-53
2022/04/30 08:18:38;;;;;;;4.12;1.50;;;;;;;15.54;42.38;101274.75;1760728;80;21533;-53
2022/04/30 08:21:09;;;;;;;5.58;1.37;;;;;;;15.53;41.37;101271.76;1758473;80;21075;-54
2022/04/30 08:23:36;;;;;;;3.83;1.47;;;;;;;15.46;41.08;101262.63;1758589;80;21077;-54
2022/04/30 08:26:03;;;;;;;3.22;1.30;;;;;;;15.37;40.88;101272.73;1758612;80;21132;-53
2022/04/30 08:28:30;;;;;;;5.22;1.80;;;;;;;15.30;41.45;101276.39;1762341;80;21042;-53
2022/04/30 08:30:58;;;;;;;8.68;2.05;;;;;;;15.27;41.13;101273.17;1763222;80;21098;-53
2022/04/30 08:33:24;;;;;;;4.35;1.77;;;;;;;15.23;41.05;101273.89;1765387;80;21039;-53
2022/04/30 08:35:51;;;;;;;4.35;1.77;;;;;;;15.19;40.81;101271.16;1762535;80;21065;-53
2022/04/30 08:38:18;;;;;;;3.90;1.47;;;;;;;15.17;40.94;101267.81;1719395;82;21163;-52
2022/04/30 08:40:45;;;;;;;6.03;1.50;;;;;;;15.13;40.81;101263.26;1747358;80;21075;-53
2022/04/30 08:43:13;;;;;;;4.55;1.52;;;;;;;15.09;40.54;101267.62;1751205;80;21070;-52
2022/04/30 08:45:42;;;;;;;5.25;1.75;;;;;;;15.04;39.90;101266.67;1763087;80;21090;-52
2022/04/30 08:48:10;;;;;;;7.92;1.85;;;;;;;15.03;40.16;101265.84;1748685;80;21520;-53
2022/04/30 08:50:38;;;;;;;3.60;1.52;;;;;;;15.04;39.77;101267.50;1750367;80;21097;-52
2022/04/30 08:53:05;;;;;;;5.53;1.90;;;;;;;15.08;40.86;101265.92;1771975;80;21054;-53
2022/04/30 08:55:32;;;;;;;3.98;1.60;;;;;;;15.19;40.85;101265.86;1749071;80;21047;-53
2022/04/30 08:57:59;;;;;;;5.53;1.62;;;;;;;15.30;40.75;101272.41;1748543;80;21094;-52
2022/04/30 09:00:26;;;;;;;5.37;2.33;;;;;;;15.44;40.91;101269.89;1752704;80;21098;-52
2022/04/30 09:02:58;;;;;;;8.18;1.80;;;;;;;15.57;40.92;101270.50;1749822;80;21111;-53
2022/04/30 09:05:37;;;;;;;7.10;2.20;;;;;;;15.69;40.22;101268.59;1695744;83;21118;-53
2022/04/30 09:08:05;;;;;;;4.92;2.08;;;;;;;15.78;39.86;101263.84;1751411;80;21016;-53
2022/04/30 09:10:35;;;;;;;5.08;2.00;;;;;;;15.90;40.14;101261.06;1748039;80;21041;-52
2022/04/30 09:13:16;;;;;;;4.65;1.70;;;;;;;16.03;40.49;101262.15;1747275;80;21038;-52
2022/04/30 09:15:44;;;;;;;4.25;1.67;;;;;;;16.12;40.23;101255.53;1749399;80;21830;-54
2022/04/30 09:18:15;;;;;;;6.08;2.02;;;;;;;16.18;39.96;101262.09;1751826;80;21064;-54
2022/04/30 09:20:51;;;;;;;5.80;1.70;;;;;;;16.22;39.47;101252.86;1745303;80;21521;-52
2022/04/30 09:23:27;;;;;;;4.92;2.02;;;;;;;16.22;39.48;101246.22;1721684;82;21062;-52
2022/04/30 09:25:55;;;;;;;;;;;;;;;16.27;39.54;101257.77;1765196;80;21082;-53
2022/04/30 09:28:30;;;;;;;4.05;1.75;;;;;;;16.31;39.01;101250.72;1721869;82;21151;-53
2022/04/30 09:31:12;;;;;;;6.25;1.90;;;;;;;16.31;39.25;101255.20;1772912;80;21031;-53
2022/04/30 09:33:55;;;;;;;6.35;1.95;;;;;;;16.33;39.59;101255.39;1769512;80;21019;-53
2022/04/30 09:39:17;;;;;;;5.65;2.00;;;;;;;16.29;39.38;101256.66;1746979;81;21533;-54
2022/04/30 09:41:44;;;;;;;4.95;2.00;;;;;;;16.20;40.04;101256.16;1750718;81;21198;-53
2022/04/30 09:44:17;;;;;;;4.92;1.80;;;;;;;16.14;40.37;101263.36;1751441;81;21021;-53
2022/04/30 09:46:45;;;;;;;4.65;1.87;;;;;;;16.03;39.77;101257.67;1725232;81;21043;-52
2022/04/30 09:54:43;;;;;;;3.90;1.60;;;;;;;15.71;40.16;101260.00;1751691;81;21279;-53
2022/04/30 09:57:10;;;;;;;3.70;1.40;;;;;;;15.68;40.63;101258.94;1748414;81;21024;-53
2022/04/30 09:59:39;;;;;;;5.22;2.27;;;;;;;15.64;40.37;101258.88;1752622;81;21493;-53
2022/04/30 10:02:08;;;;;;;4.65;2.00;;;;;;;15.60;40.41;101262.28;1738041;81;21024;-53
2022/04/30 10:04:36;;;;;;;4.70;1.90;;;;;;;15.54;40.35;101268.61;1708540;82;21083;-53
2022/04/30 10:07:04;;;;;;;5.53;2.30;;;;;;;15.49;40.30;101267.67;1746141;81;21152;-53
2022/04/30 10:09:36;;;;;;;3.90;1.80;;;;;;;15.46;40.73;101269.76;1748317;81;21046;-53
2022/04/30 10:12:31;;;;;;;4.60;1.98;;;;;;;15.44;41.00;101272.54;1747746;81;21074;-54
2022/04/30 10:15:20;;;;;;;4.40;1.72;;;;;;;15.42;41.18;101268.70;1740456;81;21018;-54
2022/04/30 10:17:57;;;;;;;4.10;1.67;;;;;;;15.42;41.68;101265.21;1759709;81;21590;-52
2022/04/30 10:20:34;;;;;;;;;;;;;;;15.40;42.27;101267.99;1694473;82;21160;-54
2022/04/30 10:22:59;;;;;;;5.60;1.90;;;;;;;15.41;42.19;101268.83;1691234;83;20150;-54
2022/04/30 10:25:43;;;;;;;5.28;1.90;;;;;;;15.35;43.43;101259.59;1735952;81;21047;-52
2022/04/30 10:28:23;;;;;;;4.47;1.65;;;;;;;15.31;43.48;101266.12;1764372;80;21556;-53
2022/04/30 10:31:03;;;;;;;4.30;2.10;;;;;;;15.22;44.21;101262.45;1744454;81;21082;-54
2022/04/30 10:33:31;;;;;;;5.97;1.75;;;;;;;15.18;44.45;101257.54;1752119;81;21762;-53
2022/04/30 10:36:06;;;;;;;5.37;1.77;;;;;;;15.13;44.69;101257.09;1745274;81;21035;-53
2022/04/30 10:38:33;;;;;;;5.25;1.70;;;;;;;15.10;44.85;101256.89;1755210;80;21576;-53
2022/04/30 10:41:01;;;;;;;3.85;1.40;;;;;;;15.11;45.07;101257.72;1749241;80;21242;-53
2022/04/30 10:43:34;;;;;;;5.00;2.20;;;;;;;15.13;45.07;101261.94;1746148;80;21029;-53
2022/04/30 10:46:05;;;;;;;5.00;2.20;;;;;;;15.14;44.70;101258.78;1748725;80;21114;-53
2022/04/30 10:48:32;;;;;;;5.17;1.95;;;;;;;15.12;44.13;101256.27;1750971;80;21545;-53
2022/04/30 10:51:11;;;;;;;4.28;1.90;;;;;;;15.11;44.56;101257.72;1758292;80;21047;-54
2022/04/30 10:53:42;;;;;;;4.67;2.40;;;;;;;15.05;44.55;101255.95;1750170;80;21085;-52
2022/04/30 10:56:09;;;;;;;4.28;1.50;;;;;;;14.93;44.75;101262.77;1718619;82;21051;-53
2022/04/30 10:58:36;;;;;;;4.70;1.80;;;;;;;14.83;45.40;101260.91;1749024;80;21136;-53
2022/04/30 11:01:16;;;;;;;4.20;2.00;;;;;;;14.76;45.85;101262.40;1746500;80;21063;-54
2022/04/30 11:03:44;;;;;;;4.05;1.50;;;;;;;14.71;46.21;101254.45;1750906;80;21052;-52
2022/04/30 11:06:13;;;;;;;4.10;1.80;;;;;;;14.70;46.24;101250.15;1751215;80;21043;-52
2022/04/30 11:08:39;;;;;;;4.90;1.52;;;;;;;14.70;46.17;101251.47;1748143;80;21644;-53
2022/04/30 11:11:06;;;;;;;4.95;2.08;;;;;;;14.70;46.47;101258.09;1748432;80;21078;-53
2022/04/30 11:13:33;;;;;;;4.72;1.95;;;;;;;14.71;46.60;101253.13;1753868;80;21549;-53
2022/04/30 11:15:59;;;;;;;4.85;2.12;;;;;;;14.72;46.74;101246.87;1751204;80;21506;-53
2022/04/30 11:18:26;;;;;;;5.97;2.98;;;;;;;14.73;46.88;101252.05;1756430;80;21066;-53
2022/04/30 11:21:00;;;;;;;4.37;2.05;;;;;;;14.70;46.73;101247.50;1752841;80;21041;-52
2022/04/30 11:23:26;;;;;;;4.60;1.95;;;;;;;14.67;47.14;101254.70;1756678;80;21259;-54
2022/04/30 11:25:53;;;;;;;4.85;2.02;;;;;;;14.62;47.24;101250.78;1759415;80;21528;-54
2022/04/30 11:28:21;;;;;;;8.00;2.30;;;;;;;14.59;47.34;101250.56;1752454;80;22258;-54
2022/04/30 11:30:48;;;;;;;4.85;2.25;;;;;;;14.57;47.46;101251.13;1749914;80;21087;-54
2022/04/30 11:33:15;;;;;;;7.17;2.47;;;;;;;14.57;47.80;101250.29;1752304;80;21159;-55
2022/04/30 11:35:41;;;;;;;7.05;2.35;;;;;;;14.56;48.28;101250.78;1725334;82;21167;-54
2022/04/30 11:38:11;;;;;;;3.70;1.75;;;;;;;14.57;47.83;101247.14;1752596;80;21007;-53
2022/04/30 11:40:42;;;;;;;6.83;2.77;;;;;;;14.56;48.05;101250.78;1749948;80;21506;-52
2022/04/30 11:43:09;;;;;;;4.08;1.92;;;;;;;14.56;47.91;101252.56;1751928;80;21074;-53
2022/04/30 11:45:37;;;;;;;5.50;1.67;;;;;;;14.56;48.11;101244.63;1751768;80;21098;-53
2022/04/30 11:48:05;;;;;;;4.37;1.87;;;;;;;14.55;47.60;101241.64;1751532;80;21143;-53
2022/04/30 11:50:31;;;;;;;3.90;1.62;;;;;;;14.55;47.54;101238.98;1750244;80;21620;-53
2022/04/30 11:52:58;;;;;;;5.20;2.17;;;;;;;14.58;47.55;101242.22;1749859;80;21743;-53
2022/04/30 11:55:25;;;;;;;3.75;1.85;;;;;;;14.64;47.17;101240.42;1757669;80;21552;-52
2022/04/30 11:57:51;;;;;;;5.17;2.08;;;;;;;14.67;47.03;101233.52;1756115;79;21086;-52
2022/04/30 12:00:19;;;;;;;5.42;1.75;;;;;;;14.73;47.24;101234.00;1752614;79;21144;-52
2022/04/30 12:02:48;;;;;;;6.22;2.22;;;;;;;14.78;46.89;101239.75;1755464;80;21028;-53
2022/04/30 12:05:14;;;;;;;4.35;1.90;;;;;;;14.83;47.00;101229.61;1742453;82;21038;-52